Time;durP1;ratioP1;P1;durP2;ratioP2;P2;SDS_P1;SDS_P2;PMS_P1;PMS_P2;Temp;Humidity;BMP_temperature;BMP_pressure;BME280_temperature;BME280_humidity;BME280_pressure;Samples;Min_cycle;Max_cycle;Signal;HPM_P1;HPM_P2
2023/03/17 00:01:49;;;;;;;1.83;0.80;;;7.80;99.90;;;;;;4968561;28;20034;-75
2023/03/17 00:04:18;;;;;;;1.90;0.90;;;7.80;99.90;;;;;;4958188;28;20377;-73
2023/03/17 00:06:45;;;;;;;3.28;1.25;;;7.70;99.90;;;;;;4958902;28;20284;-75
2023/03/17 00:09:16;;;;;;;2.53;1.00;;;7.70;99.90;;;;;;4953010;28;20041;-72
2023/03/17 00:11:44;;;;;;;2.10;1.00;;;7.60;99.90;;;;;;4957211;28;20046;-75
2023/03/17 00:14:10;;;;;;;1.00;0.50;;;7.60;99.90;;;;;;4953771;28;20041;-74
2023/03/17 00:16:41;;;;;;;1.98;0.85;;;7.60;99.90;;;;;;4963173;28;20053;-73
2023/03/17 00:19:15;;;;;;;2.13;0.70;;;7.60;99.90;;;;;;4962259;28;20868;-73
2023/03/17 00:21:44;;;;;;;1.77;0.60;;;7.50;99.90;;;;;;4979578;28;20053;-74
2023/03/17 00:24:12;;;;;;;1.70;1.10;;;7.40;99.90;;;;;;4956405;28;20046;-73
2023/03/17 00:26:39;;;;;;;2.45;0.98;;;7.40;99.90;;;;;;4958221;28;20058;-73
2023/03/17 00:29:07;;;;;;;2.08;0.98;;;7.30;99.90;;;;;;4968937;28;20917;-73
2023/03/17 00:31:34;;;;;;;2.15;0.85;;;7.20;99.90;;;;;;4974468;28;20037;-73
2023/03/17 00:34:00;;;;;;;2.83;1.05;;;7.20;99.90;;;;;;4977432;28;20069;-74
2023/03/17 00:36:30;;;;;;;2.33;1.08;;;7.20;99.90;;;;;;4968015;28;20052;-75
2023/03/17 00:38:57;;;;;;;1.83;0.80;;;7.20;99.90;;;;;;4974643;28;20054;-76
2023/03/17 00:41:25;;;;;;;2.38;0.90;;;7.20;99.90;;;;;;4956779;28;20046;-75
2023/03/17 00:43:52;;;;;;;2.25;0.80;;;7.20;99.90;;;;;;4943165;28;20926;-74
2023/03/17 00:46:22;;;;;;;2.30;0.80;;;7.20;99.90;;;;;;4969172;28;20477;-76
2023/03/17 00:48:48;;;;;;;4.03;1.17;;;7.20;99.90;;;;;;4969696;28;20034;-74
2023/03/17 00:51:15;;;;;;;2.30;1.02;;;7.20;99.90;;;;;;4978637;28;20049;-75
2023/03/17 00:53:42;;;;;;;2.95;0.80;;;7.20;99.90;;;;;;4982723;28;20041;-76
2023/03/17 00:56:14;;;;;;;2.13;0.70;;;7.20;99.90;;;;;;4943648;28;20046;-73
2023/03/17 00:58:41;;;;;;;2.33;1.05;;;7.20;99.90;;;;;;4955486;28;20052;-73
2023/03/17 01:01:09;;;;;;;3.08;0.90;;;7.20;99.90;;;;;;4953356;28;20018;-73
2023/03/17 01:03:35;;;;;;;2.42;1.10;;;7.10;99.90;;;;;;4954034;28;20044;-75
2023/03/17 01:06:03;;;;;;;3.92;0.90;;;7.10;99.90;;;;;;4938600;28;20049;-74
2023/03/17 01:08:30;;;;;;;2.50;0.80;;;7.10;99.90;;;;;;4978834;28;20037;-76
2023/03/17 01:10:57;;;;;;;1.80;0.70;;;7.10;99.90;;;;;;4946571;28;20378;-74
2023/03/17 01:13:23;;;;;;;2.20;0.80;;;7.00;99.90;;;;;;4957709;28;20048;-73
2023/03/17 01:15:51;;;;;;;2.42;0.88;;;7.10;99.90;;;;;;4955999;28;20058;-75
2023/03/17 01:18:20;;;;;;;2.60;1.05;;;7.00;99.90;;;;;;4970988;28;20050;-73
2023/03/17 01:20:47;;;;;;;1.50;0.80;;;7.00;99.90;;;;;;4950967;28;20053;-73
2023/03/17 01:23:14;;;;;;;2.15;1.13;;;7.00;99.90;;;;;;4973756;28;20511;-73
2023/03/17 01:25:41;;;;;;;3.80;1.00;;;7.00;99.90;;;;;;4962522;28;20050;-73
2023/03/17 01:28:15;;;;;;;1.70;0.73;;;7.10;99.90;;;;;;4964633;28;20042;-75
2023/03/17 01:30:42;;;;;;;1.30;0.63;;;7.00;99.90;;;;;;4972132;28;20713;-73
2023/03/17 01:33:10;;;;;;;2.38;0.90;;;7.00;99.90;;;;;;4956197;28;20050;-74
2023/03/17 01:35:37;;;;;;;2.65;0.85;;;7.00;99.90;;;;;;4973119;28;20041;-73
2023/03/17 01:38:04;;;;;;;2.45;0.82;;;7.00;99.90;;;;;;4957457;28;20049;-73
2023/03/17 01:40:37;;;;;;;3.45;1.10;;;7.00;99.90;;;;;;4953781;28;20033;-73
2023/03/17 01:43:07;;;;;;;2.28;1.00;;;7.00;99.90;;;;;;4956444;28;20049;-73
2023/03/17 01:46:11;;;;;;;1.67;0.65;;;7.00;99.90;;;;;;4948878;28;20042;-75
2023/03/17 01:48:43;;;;;;;1.73;0.90;;;7.00;99.90;;;;;;4936093;28;20027;-74
2023/03/17 01:51:17;;;;;;;2.33;0.70;;;6.90;99.90;;;;;;4935651;28;20046;-74
2023/03/17 01:53:47;;;;;;;1.58;0.82;;;6.90;99.90;;;;;;4952536;28;20047;-73
2023/03/17 01:56:14;;;;;;;2.75;1.17;;;6.90;99.90;;;;;;4952818;28;20482;-74
2023/03/17 01:58:41;;;;;;;1.77;0.70;;;6.90;99.90;;;;;;4933723;28;20057;-74
2023/03/17 02:01:09;;;;;;;2.42;1.10;;;6.80;99.90;;;;;;4943441;28;20026;-73
2023/03/17 02:03:35;;;;;;;2.67;1.02;;;6.80;99.90;;;;;;4961874;28;20035;-75
2023/03/17 02:06:03;;;;;;;2.90;1.00;;;6.80;99.90;;;;;;4950530;28;20022;-74
2023/03/17 02:08:30;;;;;;;3.80;1.10;;;6.80;99.90;;;;;;4950675;28;20473;-73
2023/03/17 02:10:57;;;;;;;2.40;0.90;;;6.80;99.90;;;;;;4951883;28;20049;-73
2023/03/17 02:13:23;;;;;;;1.95;0.82;;;6.80;99.90;;;;;;4922357;28;20054;-75
2023/03/17 02:15:53;;;;;;;4.72;1.23;;;6.80;99.90;;;;;;4954882;28;20042;-72
2023/03/17 02:18:23;;;;;;;2.10;1.15;;;6.80;99.90;;;;;;4960611;28;20061;-73
2023/03/17 02:20:55;;;;;;;2.90;1.13;;;6.80;99.90;;;;;;4958027;28;20192;-74
2023/03/17 02:23:22;;;;;;;2.22;0.80;;;6.70;99.90;;;;;;4942063;28;20035;-74
2023/03/17 02:25:51;;;;;;;1.90;1.10;;;6.70;99.90;;;;;;4955751;28;20057;-71
2023/03/17 02:28:23;;;;;;;1.90;1.00;;;6.70;99.90;;;;;;4953817;28;20493;-73
2023/03/17 02:30:49;;;;;;;3.17;1.25;;;6.70;99.90;;;;;;4936512;28;20042;-73
2023/03/17 02:33:17;;;;;;;3.63;1.17;;;6.60;99.90;;;;;;4973993;28;20689;-73
2023/03/17 02:35:45;;;;;;;4.38;1.10;;;6.60;99.90;;;;;;4948793;28;20054;-72
2023/03/17 02:38:12;;;;;;;1.88;0.93;;;6.60;99.90;;;;;;4961717;28;20042;-73
2023/03/17 02:40:38;;;;;;;2.25;1.00;;;6.60;99.90;;;;;;4954213;28;20614;-74
2023/03/17 02:43:04;;;;;;;2.70;1.35;;;6.70;99.90;;;;;;4956005;28;20049;-72
2023/03/17 02:45:32;;;;;;;2.95;1.30;;;6.70;99.90;;;;;;4953911;28;20494;-73
2023/03/17 02:47:59;;;;;;;2.42;1.05;;;6.70;99.90;;;;;;4954061;28;20050;-75
2023/03/17 02:50:27;;;;;;;3.55;1.00;;;6.70;99.90;;;;;;4956186;28;20034;-74
2023/03/17 02:52:53;;;;;;;4.03;1.00;;;6.70;99.90;;;;;;4944367;28;20034;-75
2023/03/17 02:55:21;;;;;;;2.20;0.85;;;6.70;99.90;;;;;;4974337;28;20041;-73
2023/03/17 02:57:47;;;;;;;1.92;1.00;;;6.60;99.90;;;;;;4926053;28;20038;-72
2023/03/17 03:00:14;;;;;;;3.25;1.55;;;6.60;99.90;;;;;;4950878;28;20050;-73
2023/03/17 03:02:41;;;;;;;2.40;1.00;;;6.60;99.90;;;;;;4957013;28;20405;-74
2023/03/17 03:05:08;;;;;;;4.10;1.50;;;6.60;99.90;;;;;;4938136;28;20062;-73
2023/03/17 03:07:35;;;;;;;2.10;1.20;;;6.60;99.90;;;;;;4958521;28;20457;-72
2023/03/17 03:10:01;;;;;;;2.63;1.10;;;6.60;99.90;;;;;;4964480;28;20030;-74
2023/03/17 03:12:29;;;;;;;4.47;1.10;;;6.70;99.90;;;;;;4961669;28;20054;-72
2023/03/17 03:14:55;;;;;;;2.17;1.20;;;6.70;99.90;;;;;;4950733;28;20069;-73
2023/03/17 03:17:21;;;;;;;2.67;1.00;;;6.70;99.90;;;;;;4956407;28;20134;-72
2023/03/17 03:19:48;;;;;;;6.63;1.42;;;6.70;99.90;;;;;;4951267;28;20054;-75
2023/03/17 03:22:14;;;;;;;2.65;0.90;;;6.70;99.90;;;;;;4955089;28;22921;-74
2023/03/17 03:24:41;;;;;;;2.00;1.00;;;6.70;99.90;;;;;;4941795;28;20030;-73
2023/03/17 03:27:07;;;;;;;3.42;1.35;;;6.70;99.90;;;;;;4964777;28;20421;-73
2023/03/17 03:29:34;;;;;;;3.03;1.15;;;6.70;99.90;;;;;;4954924;28;20058;-73
2023/03/17 03:32:00;;;;;;;3.00;0.98;;;6.80;99.90;;;;;;4955398;28;20385;-73
2023/03/17 03:34:27;;;;;;;2.90;1.13;;;6.80;99.90;;;;;;4954379;28;20061;-71
2023/03/17 03:36:54;;;;;;;3.00;1.20;;;6.80;99.90;;;;;;4955895;28;21052;-73
2023/03/17 03:39:21;;;;;;;1.95;1.00;;;6.90;99.90;;;;;;4949691;28;20065;-75
2023/03/17 03:41:47;;;;;;;2.08;0.80;;;6.80;99.90;;;;;;4958202;28;20401;-73
2023/03/17 03:44:13;;;;;;;1.75;0.77;;;6.90;99.90;;;;;;4965268;28;20058;-73
2023/03/17 03:46:40;;;;;;;1.80;0.82;;;6.90;99.90;;;;;;4981919;28;20041;-75
2023/03/17 03:49:06;;;;;;;1.88;0.90;;;6.90;99.90;;;;;;4970668;28;20054;-74
2023/03/17 03:51:32;;;;;;;2.75;0.77;;;6.90;99.90;;;;;;4946002;28;20397;-75
2023/03/17 03:54:00;;;;;;;2.40;1.05;;;6.80;99.90;;;;;;4958061;28;20416;-73
2023/03/17 03:56:26;;;;;;;3.33;1.20;;;6.80;99.90;;;;;;4973777;28;20488;-73
2023/03/17 03:58:52;;;;;;;2.35;0.90;;;6.80;99.90;;;;;;4958426;28;20045;-73
2023/03/17 04:01:18;;;;;;;2.58;0.70;;;6.80;99.90;;;;;;4983195;28;20099;-73
2023/03/17 04:03:46;;;;;;;2.45;0.63;;;6.80;99.90;;;;;;4964215;28;20033;-72
2023/03/17 04:06:12;;;;;;;1.80;0.70;;;6.80;99.90;;;;;;4957230;28;20385;-73
2023/03/17 04:08:38;;;;;;;1.50;0.70;;;6.70;99.90;;;;;;4955841;28;20298;-74
2023/03/17 04:11:05;;;;;;;2.63;1.10;;;6.70;99.90;;;;;;4970347;28;20022;-72
2023/03/17 04:13:31;;;;;;;2.65;0.73;;;6.70;99.90;;;;;;4962005;28;20674;-73
2023/03/17 04:15:57;;;;;;;1.70;0.70;;;6.70;99.90;;;;;;4977217;28;20057;-72
2023/03/17 04:18:24;;;;;;;1.48;0.60;;;6.70;99.90;;;;;;4962875;28;20058;-73
2023/03/17 04:20:50;;;;;;;2.38;0.80;;;6.70;99.90;;;;;;4957727;28;20505;-72
2023/03/17 04:23:17;;;;;;;1.80;0.60;;;6.70;99.90;;;;;;4960041;28;20049;-72
2023/03/17 04:25:44;;;;;;;2.03;0.70;;;6.70;99.90;;;;;;4959167;28;20030;-72
2023/03/17 04:28:11;;;;;;;1.13;0.65;;;6.60;99.90;;;;;;4975298;28;20057;-72
2023/03/17 04:30:37;;;;;;;1.63;0.70;;;6.60;99.90;;;;;;4966401;28;20040;-75
2023/03/17 04:33:03;;;;;;;1.85;0.70;;;6.50;99.90;;;;;;4959841;28;20362;-73
2023/03/17 04:35:30;;;;;;;1.00;0.50;;;6.50;99.90;;;;;;4964980;28;20058;-72
2023/03/17 04:37:56;;;;;;;1.42;0.60;;;6.40;99.90;;;;;;4983106;28;20056;-73
2023/03/17 04:40:22;;;;;;;2.53;0.88;;;6.40;99.90;;;;;;4951066;28;21586;-73
2023/03/17 04:42:49;;;;;;;2.78;0.85;;;6.30;99.90;;;;;;4945186;28;20049;-73
2023/03/17 04:45:16;;;;;;;1.85;0.80;;;6.30;99.90;;;;;;4927822;28;20362;-73
2023/03/17 04:47:44;;;;;;;2.20;0.63;;;6.20;99.90;;;;;;4973339;28;20042;-75
2023/03/17 04:50:11;;;;;;;2.13;0.73;;;6.20;99.90;;;;;;4953512;28;20044;-74
2023/03/17 04:52:38;;;;;;;1.73;0.70;;;6.20;99.90;;;;;;4980915;28;20045;-73
2023/03/17 04:55:07;;;;;;;1.27;0.50;;;6.20;99.90;;;;;;4965188;28;20042;-73
2023/03/17 04:57:34;;;;;;;1.77;0.73;;;6.10;99.90;;;;;;4924550;28;20358;-75
2023/03/17 05:00:01;;;;;;;2.25;0.60;;;6.10;99.90;;;;;;4964244;28;20477;-73
2023/03/17 05:02:27;;;;;;;1.75;0.70;;;6.10;99.90;;;;;;4957914;28;20042;-73
2023/03/17 05:04:54;;;;;;;1.45;0.80;;;6.10;99.90;;;;;;4956394;28;20034;-72
2023/03/17 05:07:20;;;;;;;2.70;0.80;;;6.10;99.90;;;;;;4944328;28;20050;-72
2023/03/17 05:09:47;;;;;;;2.03;0.80;;;6.10;99.90;;;;;;4973744;28;20823;-73
2023/03/17 05:12:13;;;;;;;1.63;0.70;;;6.10;99.90;;;;;;4964433;28;20042;-73
2023/03/17 05:14:39;;;;;;;1.60;0.65;;;6.10;99.90;;;;;;4955125;28;20045;-73
2023/03/17 05:17:06;;;;;;;2.10;0.80;;;6.10;99.90;;;;;;4973408;28;20038;-75
2023/03/17 05:19:32;;;;;;;1.92;0.77;;;6.20;99.90;;;;;;4965080;28;20050;-73
2023/03/17 05:21:58;;;;;;;2.42;0.93;;;6.20;99.90;;;;;;4956481;28;20049;-73
2023/03/17 05:24:25;;;;;;;1.92;0.70;;;6.20;99.90;;;;;;4940163;28;20392;-73
2023/03/17 05:26:52;;;;;;;1.85;0.63;;;6.10;99.90;;;;;;4964312;28;20057;-74
2023/03/17 05:29:18;;;;;;;3.42;1.13;;;6.10;99.90;;;;;;4959256;28;20497;-74
2023/03/17 05:31:46;;;;;;;2.65;0.80;;;6.10;99.90;;;;;;4957197;28;20050;-75
2023/03/17 05:34:12;;;;;;;1.35;0.85;;;6.10;99.90;;;;;;4955995;28;20390;-73
2023/03/17 05:36:38;;;;;;;1.92;0.60;;;6.10;99.90;;;;;;4955167;28;20053;-75
2023/03/17 05:39:06;;;;;;;1.75;0.60;;;6.00;99.90;;;;;;4952725;28;20052;-74
2023/03/17 05:41:32;;;;;;;1.08;0.68;;;6.00;99.90;;;;;;4970763;28;20045;-74
2023/03/17 05:43:59;;;;;;;2.10;0.60;;;6.00;99.90;;;;;;4950917;28;20052;-74
2023/03/17 05:46:25;;;;;;;2.35;1.10;;;6.00;99.90;;;;;;4967080;28;20495;-76
2023/03/17 05:48:51;;;;;;;3.88;0.80;;;5.90;99.90;;;;;;4953529;28;20045;-75
2023/03/17 05:51:18;;;;;;;2.65;0.82;;;5.90;99.90;;;;;;4922658;28;20035;-73
2023/03/17 05:53:44;;;;;;;1.75;0.80;;;5.90;99.90;;;;;;4956525;28;20034;-73
2023/03/17 05:56:11;;;;;;;2.10;0.87;;;5.90;99.90;;;;;;4957419;28;20048;-75
2023/03/17 05:58:38;;;;;;;2.30;0.63;;;5.90;99.90;;;;;;4953298;28;20057;-75
2023/03/17 06:01:04;;;;;;;1.70;0.73;;;5.90;99.90;;;;;;4974319;28;21180;-74
2023/03/17 06:03:31;;;;;;;2.35;0.82;;;5.90;99.90;;;;;;4964629;28;20042;-72
2023/03/17 06:05:57;;;;;;;3.25;0.70;;;6.00;99.90;;;;;;4977137;28;20042;-73
2023/03/17 06:08:23;;;;;;;3.95;1.00;;;6.00;99.90;;;;;;4972440;28;20379;-73
2023/03/17 06:10:50;;;;;;;2.65;0.55;;;6.10;99.90;;;;;;4963976;28;20445;-75
2023/03/17 06:13:16;;;;;;;2.58;0.70;;;6.10;99.90;;;;;;4972670;28;20050;-72
2023/03/17 06:15:43;;;;;;;1.40;0.60;;;6.20;99.90;;;;;;4956132;28;20045;-72
2023/03/17 06:18:09;;;;;;;4.97;0.60;;;6.20;99.90;;;;;;4976689;28;20485;-73
2023/03/17 06:20:36;;;;;;;1.65;0.60;;;6.30;99.90;;;;;;4973116;28;20034;-75
2023/03/17 06:23:02;;;;;;;2.47;1.00;;;6.30;99.90;;;;;;4963039;28;20397;-75
2023/03/17 06:25:29;;;;;;;2.05;0.80;;;6.30;99.90;;;;;;4942179;28;20050;-73
2023/03/17 06:27:56;;;;;;;2.57;0.80;;;6.30;99.90;;;;;;4955253;28;20034;-74
2023/03/17 06:30:22;;;;;;;1.80;0.73;;;6.30;99.90;;;;;;4963884;28;20049;-75
2023/03/17 06:32:49;;;;;;;2.05;1.00;;;6.30;99.90;;;;;;4971938;28;20045;-74
2023/03/17 06:35:16;;;;;;;1.40;0.70;;;6.30;99.90;;;;;;4974628;28;20499;-73
2023/03/17 06:37:43;;;;;;;3.38;0.80;;;6.30;99.90;;;;;;4949086;28;20034;-76
2023/03/17 06:40:10;;;;;;;2.83;0.70;;;6.30;99.90;;;;;;4939153;28;20465;-76
2023/03/17 06:42:36;;;;;;;1.92;0.90;;;6.30;99.90;;;;;;4953398;28;20058;-75
2023/03/17 06:45:03;;;;;;;4.53;1.08;;;6.30;99.90;;;;;;4953660;28;20050;-74
2023/03/17 06:47:30;;;;;;;2.33;0.88;;;6.40;99.90;;;;;;4955032;28;20053;-73
2023/03/17 06:49:56;;;;;;;2.15;1.27;;;6.40;99.90;;;;;;4947945;28;20037;-75
2023/03/17 06:52:22;;;;;;;2.08;0.82;;;6.40;99.90;;;;;;4958915;28;20049;-73
2023/03/17 06:54:49;;;;;;;2.22;0.80;;;6.40;99.90;;;;;;4950331;28;20133;-75
2023/03/17 06:57:15;;;;;;;1.70;1.10;;;6.50;99.90;;;;;;4977210;28;20042;-74
2023/03/17 06:59:41;;;;;;;2.45;0.80;;;6.60;99.90;;;;;;4948797;28;20495;-74
2023/03/17 07:02:10;;;;;;;2.53;0.90;;;6.80;99.90;;;;;;4964946;28;20049;-75
2023/03/17 07:04:37;;;;;;;2.08;0.95;;;6.90;99.90;;;;;;4950040;28;20033;-74
2023/03/17 07:07:04;;;;;;;3.15;1.92;;;7.00;99.90;;;;;;4970113;28;20030;-73
2023/03/17 07:09:33;;;;;;;2.90;1.27;;;7.10;99.90;;;;;;4954261;28;20497;-76
2023/03/17 07:12:03;;;;;;;2.33;1.00;;;7.20;99.90;;;;;;4982117;28;20037;-74
2023/03/17 07:14:35;;;;;;;1.65;0.70;;;7.40;99.90;;;;;;4962750;28;20042;-74
2023/03/17 07:17:03;;;;;;;2.25;0.95;;;7.50;99.90;;;;;;4942276;28;20392;-73
2023/03/17 07:19:30;;;;;;;2.22;0.90;;;7.70;99.90;;;;;;4967098;28;20038;-73
2023/03/17 07:21:57;;;;;;;1.70;0.90;;;7.80;99.90;;;;;;4972448;28;20038;-74
2023/03/17 07:24:24;;;;;;;2.38;0.85;;;8.00;99.90;;;;;;4940134;28;20049;-72
2023/03/17 07:26:51;;;;;;;3.22;0.70;;;8.10;99.90;;;;;;4978371;28;20041;-74
2023/03/17 07:29:17;;;;;;;2.35;0.88;;;8.20;99.90;;;;;;4959574;28;20057;-73
2023/03/17 07:31:44;;;;;;;2.10;0.70;;;8.30;99.90;;;;;;4980053;28;20045;-74
2023/03/17 07:34:11;;;;;;;3.65;1.08;;;8.40;99.90;;;;;;4956912;28;20042;-74
2023/03/17 07:36:38;;;;;;;3.45;1.13;;;8.60;99.90;;;;;;4976068;28;20046;-72
2023/03/17 07:39:04;;;;;;;2.58;0.93;;;8.70;99.90;;;;;;4936829;28;20049;-73
2023/03/17 07:41:30;;;;;;;2.20;1.13;;;8.80;99.90;;;;;;4971363;28;20362;-73
2023/03/17 07:43:57;;;;;;;2.72;0.80;;;8.90;99.90;;;;;;4963212;28;20050;-72
2023/03/17 07:46:23;;;;;;;2.33;0.95;;;9.10;99.90;;;;;;4983741;28;21606;-73
2023/03/17 07:48:50;;;;;;;1.52;0.80;;;9.20;99.90;;;;;;4938620;28;20045;-74
2023/03/17 07:51:20;;;;;;;2.33;1.23;;;9.30;99.90;;;;;;4951421;28;20057;-73
2023/03/17 07:53:48;;;;;;;4.97;1.35;;;9.40;99.90;;;;;;4974201;28;20413;-75
2023/03/17 07:56:16;;;;;;;2.35;1.00;;;9.50;99.90;;;;;;4956358;28;20046;-73
2023/03/17 07:58:43;;;;;;;1.23;0.60;;;9.60;99.90;;;;;;4974089;28;20034;-72
2023/03/17 08:01:09;;;;;;;2.10;0.60;;;9.70;99.90;;;;;;4976503;28;20044;-73
2023/03/17 08:03:36;;;;;;;3.88;0.93;;;9.80;99.90;;;;;;4968835;28;20037;-74
2023/03/17 08:06:04;;;;;;;3.25;0.90;;;9.80;99.90;;;;;;4968033;28;20291;-73
2023/03/17 08:08:31;;;;;;;2.63;0.90;;;9.90;99.90;;;;;;4961259;28;20049;-73
2023/03/17 08:11:03;;;;;;;3.33;1.08;;;9.90;99.90;;;;;;4975246;28;20029;-75
2023/03/17 08:13:31;;;;;;;3.87;0.80;;;9.90;99.90;;;;;;4976514;28;20050;-73
2023/03/17 08:15:57;;;;;;;4.10;1.65;;;10.00;99.90;;;;;;4961372;28;20656;-73
2023/03/17 08:18:23;;;;;;;3.28;0.90;;;10.00;99.90;;;;;;4961724;28;20038;-76
2023/03/17 08:20:50;;;;;;;3.42;0.90;;;10.10;99.90;;;;;;4967722;28;22768;-75
2023/03/17 08:23:20;;;;;;;3.28;1.15;;;10.20;99.90;;;;;;4956848;28;20397;-73
2023/03/17 08:25:47;;;;;;;1.85;0.93;;;10.30;99.90;;;;;;4965158;28;20038;-75
2023/03/17 08:28:14;;;;;;;4.15;1.20;;;10.40;99.90;;;;;;4952116;28;20046;-73
2023/03/17 08:30:41;;;;;;;4.13;1.00;;;10.50;99.90;;;;;;4970121;28;20061;-73
2023/03/17 08:33:08;;;;;;;2.20;1.20;;;10.60;99.90;;;;;;4974978;28;20420;-74
2023/03/17 08:35:36;;;;;;;2.58;1.00;;;10.70;99.90;;;;;;4974255;28;20054;-75
2023/03/17 08:38:03;;;;;;;2.35;1.00;;;10.90;99.90;;;;;;4974042;28;20473;-75
2023/03/17 08:40:29;;;;;;;3.75;1.20;;;11.00;99.90;;;;;;4968105;28;20696;-73
2023/03/17 08:42:56;;;;;;;3.67;1.45;;;11.10;99.90;;;;;;4964446;28;20057;-75
2023/03/17 08:45:22;;;;;;;2.65;0.80;;;11.20;99.90;;;;;;4983630;28;20050;-73
2023/03/17 08:47:49;;;;;;;2.70;1.30;;;11.30;99.90;;;;;;4946103;28;20046;-74
2023/03/17 08:50:18;;;;;;;2.92;1.17;;;11.40;99.90;;;;;;4951078;28;20037;-76
2023/03/17 08:52:45;;;;;;;3.50;1.00;;;11.40;99.90;;;;;;4974151;28;20064;-75
2023/03/17 08:55:13;;;;;;;2.50;0.85;;;11.50;99.90;;;;;;4973145;28;20424;-76
2023/03/17 08:57:39;;;;;;;2.05;1.00;;;11.60;99.90;;;;;;4974261;28;20041;-73
2023/03/17 09:00:09;;;;;;;2.67;1.25;;;11.70;99.90;;;;;;4955589;28;20026;-73
2023/03/17 09:02:41;;;;;;;3.53;1.08;;;11.80;99.90;;;;;;4967242;28;20105;-74
2023/03/17 09:05:12;;;;;;;3.30;1.05;;;11.90;99.90;;;;;;4978977;28;20061;-75
2023/03/17 09:07:40;;;;;;;2.75;1.38;;;11.90;99.90;;;;;;4955251;28;20053;-73
2023/03/17 09:10:08;;;;;;;4.22;1.20;;;12.00;99.90;;;;;;4964740;28;20053;-72
2023/03/17 09:12:34;;;;;;;3.42;1.17;;;12.00;99.90;;;;;;4943674;28;20516;-74
2023/03/17 09:15:01;;;;;;;2.13;1.05;;;12.10;99.90;;;;;;4957566;28;20113;-73
2023/03/17 09:17:27;;;;;;;3.65;1.30;;;12.20;99.90;;;;;;4960446;28;20595;-73
2023/03/17 09:19:53;;;;;;;4.20;1.38;;;12.30;99.90;;;;;;4978098;28;20489;-76
2023/03/17 09:22:20;;;;;;;2.65;1.50;;;12.30;99.90;;;;;;4977967;28;20750;-75
2023/03/17 09:24:46;;;;;;;3.17;1.20;;;12.40;99.90;;;;;;4972071;28;20050;-76
2023/03/17 09:27:12;;;;;;;4.32;2.65;;;12.40;99.90;;;;;;4955168;28;20053;-73
2023/03/17 09:29:40;;;;;;;3.28;2.15;;;12.50;99.90;;;;;;4949079;28;20041;-74
2023/03/17 09:32:07;;;;;;;2.85;1.92;;;12.60;99.90;;;;;;4940952;28;20045;-77
2023/03/17 09:34:34;;;;;;;2.95;1.48;;;12.80;99.90;;;;;;4942771;28;20040;-74
2023/03/17 09:37:01;;;;;;;5.72;1.23;;;12.90;99.90;;;;;;4963933;28;20046;-75
2023/03/17 09:39:27;;;;;;;3.65;1.42;;;13.00;99.90;;;;;;4957180;28;20045;-74
2023/03/17 09:41:57;;;;;;;2.35;1.30;;;13.10;99.90;;;;;;4955225;28;20673;-76
2023/03/17 09:44:42;;;;;;;5.47;1.30;;;13.10;99.90;;;;;;4951609;28;20042;-74
2023/03/17 09:47:46;;;;;;;4.45;1.60;;;13.20;99.90;;;;;;4956597;28;20041;-72
2023/03/17 09:50:18;;;;;;;3.38;1.67;;;13.20;99.90;;;;;;4963886;28;20397;-73
2023/03/17 09:52:44;;;;;;;2.78;1.70;;;13.30;99.90;;;;;;4946399;28;20036;-73
2023/03/17 09:55:25;;;;;;;3.20;1.23;;;13.50;99.90;;;;;;4965802;28;20046;-74
2023/03/17 09:57:55;;;;;;;3.65;1.42;;;13.60;99.90;;;;;;4958308;28;20037;-75
2023/03/17 10:00:28;;;;;;;2.78;1.10;;;13.70;99.90;;;;;;4965234;28;20060;-75
2023/03/17 10:02:56;;;;;;;3.25;1.20;;;14.00;99.90;;;;;;4971845;28;20041;-77
2023/03/17 10:05:26;;;;;;;3.67;1.20;;;14.30;99.90;;;;;;4973011;28;20050;-75
2023/03/17 10:08:20;;;;;;;2.05;0.90;;;14.50;99.90;;;;;;4959254;28;20485;-75
2023/03/17 10:11:09;;;;;;;3.08;1.45;;;14.80;99.90;;;;;;4957947;28;20042;-78
2023/03/17 10:14:01;;;;;;;3.35;1.20;;;15.10;99.90;;;;;;4961407;28;20033;-75
2023/03/17 10:16:41;;;;;;;2.90;1.52;;;15.30;99.90;;;;;;4972202;28;20042;-74
2023/03/17 10:19:36;;;;;;;2.97;1.40;;;15.50;99.90;;;;;;4951738;28;20046;-76
2023/03/17 10:22:29;;;;;;;3.10;1.52;;;15.70;99.90;;;;;;4957731;28;20708;-78
2023/03/17 10:25:02;;;;;;;3.00;1.00;;;15.80;99.90;;;;;;4941903;28;20050;-79
2023/03/17 10:27:33;;;;;;;3.33;1.45;;;16.00;99.90;;;;;;4962321;28;20042;-76
2023/03/17 10:30:00;;;;;;;3.45;1.63;;;16.10;99.90;;;;;;4970335;28;20046;-76
2023/03/17 10:32:29;;;;;;;3.85;1.23;;;16.40;99.90;;;;;;4955187;28;20380;-75
2023/03/17 10:34:56;;;;;;;4.03;1.70;;;16.70;99.90;;;;;;4954708;28;20051;-76
2023/03/17 10:37:23;;;;;;;5.75;3.22;;;16.90;99.90;;;;;;4955307;28;20054;-76
2023/03/17 10:39:55;;;;;;;4.25;2.35;;;17.10;99.90;;;;;;4946667;28;20038;-75
2023/03/17 10:42:24;;;;;;;3.50;1.70;;;17.20;99.90;;;;;;4979354;28;20054;-75
2023/03/17 10:44:53;;;;;;;3.88;1.42;;;17.50;99.90;;;;;;4963716;28;20038;-76
2023/03/17 10:47:22;;;;;;;3.78;1.60;;;17.60;99.90;;;;;;4975767;28;20050;-75
2023/03/17 10:49:51;;;;;;;3.08;1.83;;;17.70;99.90;;;;;;4965896;28;20033;-75
2023/03/17 10:52:24;;;;;;;3.97;1.27;;;17.70;99.90;;;;;;4972624;28;20501;-75
2023/03/17 10:54:50;;;;;;;2.25;1.17;;;17.70;99.90;;;;;;4940176;28;20413;-76
2023/03/17 10:57:17;;;;;;;4.32;1.25;;;17.70;99.90;;;;;;4958005;28;20048;-77
2023/03/17 10:59:52;;;;;;;3.13;1.20;;;17.70;99.90;;;;;;4975153;28;20046;-76
2023/03/17 11:02:26;;;;;;;6.57;1.65;;;18.00;99.90;;;;;;4947191;28;20991;-74
2023/03/17 11:04:58;;;;;;;4.07;1.65;;;18.20;99.70;;;;;;4959884;28;20473;-74
2023/03/17 11:07:37;;;;;;;4.55;1.55;;;18.50;99.50;;;;;;4959440;28;20037;-75
2023/03/17 11:10:15;;;;;;;19.05;1.38;;;18.70;98.30;;;;;;4930037;28;20038;-75
2023/03/17 11:12:42;;;;;;;3.53;1.55;;;18.90;97.80;;;;;;4955084;28;20061;-75
2023/03/17 11:15:17;;;;;;;3.95;1.27;;;19.10;97.70;;;;;;4974317;28;20046;-74
2023/03/17 11:18:02;;;;;;;3.35;1.75;;;19.40;97.10;;;;;;4947701;28;20326;-76
2023/03/17 11:21:00;;;;;;;4.97;1.50;;;19.60;96.30;;;;;;4970249;28;20046;-73
2023/03/17 11:23:42;;;;;;;5.72;1.25;;;19.80;95.60;;;;;;4932524;28;20040;-77
2023/03/17 11:26:17;;;;;;;2.53;1.40;;;20.10;95.10;;;;;;4932097;28;20056;-74
2023/03/17 11:28:55;;;;;;;2.85;1.25;;;20.20;94.80;;;;;;4958012;28;20529;-77
2023/03/17 11:32:09;;;;;;;4.50;2.30;;;20.30;93.80;;;;;;4928352;28;20065;-74
2023/03/17 11:35:07;;;;;;;5.82;1.73;;;20.40;93.40;;;;;;4945959;28;20041;-74
2023/03/17 11:38:08;;;;;;;5.32;2.17;;;20.60;92.80;;;;;;4961276;28;20054;-78
2023/03/17 11:40:37;;;;;;;3.35;1.40;;;20.60;91.70;;;;;;4949532;28;20034;-75
2023/03/17 11:43:22;;;;;;;2.35;1.17;;;20.20;91.70;;;;;;4974324;28;20053;-75
2023/03/17 11:46:01;;;;;;;3.67;1.63;;;19.80;92.00;;;;;;4943586;28;20114;-74
2023/03/17 11:48:38;;;;;;;2.15;1.13;;;19.50;92.10;;;;;;4959870;28;20050;-74
2023/03/17 11:51:15;;;;;;;3.97;1.42;;;19.20;92.50;;;;;;4963528;28;20587;-74
2023/03/17 11:53:50;;;;;;;3.90;1.58;;;19.20;92.70;;;;;;4979791;28;20045;-75
2023/03/17 11:56:20;;;;;;;3.50;1.25;;;19.20;92.90;;;;;;4975124;28;20490;-76
2023/03/17 11:59:00;;;;;;;4.60;1.58;;;19.40;92.90;;;;;;4957805;28;20037;-77
2023/03/17 12:01:55;;;;;;;4.07;1.20;;;20.10;92.60;;;;;;4958638;28;20426;-76
2023/03/17 12:04:33;;;;;;;3.55;1.63;;;20.70;92.10;;;;;;4974533;28;20890;-78
2023/03/17 12:07:09;;;;;;;5.18;1.92;;;21.00;91.70;;;;;;4964652;28;20386;-74
2023/03/17 12:09:41;;;;;;;4.35;1.90;;;21.20;90.90;;;;;;4959968;28;20040;-76
2023/03/17 12:12:11;;;;;;;6.65;2.92;;;21.00;90.80;;;;;;4973787;28;20413;-77
2023/03/17 12:14:45;;;;;;;6.45;4.85;;;21.10;90.70;;;;;;4960694;28;20048;-77
2023/03/17 12:17:23;;;;;;;5.38;3.05;;;21.50;90.60;;;;;;4957910;28;20080;-78
2023/03/17 12:20:09;;;;;;;8.07;4.57;;;21.90;90.10;;;;;;4950169;28;20054;-77
2023/03/17 12:22:58;;;;;;;3.97;2.83;;;22.30;89.40;;;;;;4929789;28;20033;-79
2023/03/17 12:25:29;;;;;;;4.25;1.90;;;22.50;88.20;;;;;;4965743;28;20042;-78
2023/03/17 12:28:07;;;;;;;5.00;1.80;;;22.80;87.10;;;;;;4979861;28;20485;-77
2023/03/17 12:30:58;;;;;;;4.35;2.00;;;23.00;85.60;;;;;;4937334;28;20037;-79
2023/03/17 12:33:35;;;;;;;4.03;1.27;;;23.30;84.10;;;;;;4959015;28;20049;-77
2023/03/17 12:36:04;;;;;;;4.20;2.08;;;23.50;83.70;;;;;;4959663;28;20061;-74
2023/03/17 12:38:41;;;;;;;5.97;2.03;;;23.70;82.60;;;;;;4973792;28;20038;-77
2023/03/17 12:41:51;;;;;;;4.22;1.83;;;23.80;81.70;;;;;;4957446;28;20359;-76
2023/03/17 12:44:45;;;;;;;4.88;2.45;;;24.00;80.60;;;;;;4978146;28;20058;-77
2023/03/17 12:47:33;;;;;;;6.00;2.60;;;24.10;80.20;;;;;;4972820;28;20030;-74
2023/03/17 12:50:06;;;;;;;4.35;1.88;;;24.30;78.40;;;;;;4965428;28;20038;-74
2023/03/17 12:52:51;;;;;;;6.13;2.13;;;24.60;78.10;;;;;;4971426;28;20064;-76
2023/03/17 12:55:24;;;;;;;4.50;2.28;;;24.80;76.40;;;;;;4953488;28;20505;-77
2023/03/17 12:58:24;;;;;;;4.57;2.72;;;25.10;75.10;;;;;;4977813;28;20042;-77
2023/03/17 13:01:27;;;;;;;3.85;2.03;;;25.20;74.30;;;;;;4942369;28;20034;-74
2023/03/17 13:04:05;;;;;;;3.20;2.47;;;24.50;74.10;;;;;;4970908;28;20056;-77
2023/03/17 13:06:47;;;;;;;3.88;1.75;;;24.10;74.80;;;;;;4938533;28;20048;-75
2023/03/17 13:09:31;;;;;;;4.93;2.13;;;24.20;75.30;;;;;;4965313;28;20042;-76